Time;durP1;ratioP1;P1;durP2;ratioP2;P2;SDS_P1;SDS_P2;PMS_P1;PMS_P2;Temp;Humidity;BMP_temperature;BMP_pressure;BME280_temperature;BME280_humidity;BME280_pressure;Samples;Min_cycle;Max_cycle;Signal;HPM_P1;HPM_P2
2022/12/10 00:03:10;;;;;;;33.33;29.23;;;6.00;99.90;;;;;;10506965;28;20215;-80
2022/12/10 00:14:47;;;;;;;32.23;28.73;;;6.00;99.90;;;;;;10453717;28;20523;-79
2022/12/10 00:25:23;;;;;;;34.93;31.23;;;6.00;99.90;;;;;;10519271;28;20196;-82
2022/12/10 00:30:34;;;;;;;32.83;29.33;;;6.00;99.90;;;;;;10542288;28;20679;-82
2022/12/10 00:35:38;;;;;;;31.73;28.30;;;6.00;99.90;;;;;;10527075;28;20204;-82
2022/12/10 00:53:57;;;;;;;30.33;27.37;;;6.00;99.90;;;;;;10478798;28;20225;-80
2022/12/10 01:05:05;;;;;;;31.40;28.00;;;6.00;99.90;;;;;;10332996;28;20294;-82
2022/12/10 01:10:23;;;;;;;30.77;27.67;;;6.00;99.90;;;;;;10479711;28;20224;-83
2022/12/10 01:28:57;;;;;;;30.20;27.20;;;5.90;99.90;;;;;;10254013;29;20200;-83
2022/12/10 01:45:48;;;;;;;30.20;27.13;;;5.90;99.90;;;;;;10514887;28;20218;-83
2022/12/10 01:50:52;;;;;;;29.63;26.53;;;5.90;99.90;;;;;;10542314;28;20235;-83
2022/12/10 01:55:54;;;;;;;31.60;28.40;;;5.90;99.90;;;;;;10499980;28;20713;-83
2022/12/10 02:01:29;;;;;;;29.27;25.83;;;5.90;99.90;;;;;;10519861;28;20234;-83
2022/12/10 02:07:20;;;;;;;29.97;26.77;;;5.90;99.90;;;;;;10492577;28;20334;-83
2022/12/10 02:12:47;;;;;;;29.67;26.47;;;5.90;99.90;;;;;;10514010;28;20251;-83
2022/12/10 02:29:54;;;;;;;29.93;26.83;;;5.90;99.90;;;;;;10545126;28;20226;-82
2022/12/10 02:34:59;;;;;;;29.37;26.10;;;5.90;99.90;;;;;;10484923;28;20311;-82
2022/12/10 02:40:06;;;;;;;29.13;26.10;;;5.90;99.90;;;;;;10522592;28;20216;-81
2022/12/10 02:45:18;;;;;;;30.20;27.07;;;5.90;99.90;;;;;;10494162;28;20254;-83
2022/12/10 02:50:23;;;;;;;28.60;25.60;;;5.90;99.90;;;;;;10523306;28;20281;-80
2022/12/10 02:55:27;;;;;;;29.57;26.57;;;5.80;99.90;;;;;;10508326;28;20239;-82
2022/12/10 03:00:34;;;;;;;29.70;26.70;;;5.80;99.90;;;;;;10533640;28;20348;-80
2022/12/10 03:05:46;;;;;;;29.07;26.07;;;5.80;99.90;;;;;;10510738;28;20560;-82
2022/12/10 03:10:55;;;;;;;28.80;25.73;;;5.70;99.90;;;;;;10518873;28;20228;-82
2022/12/10 03:16:01;;;;;;;29.80;26.80;;;5.70;99.90;;;;;;10557919;28;20747;-83
2022/12/10 03:21:32;;;;;;;29.63;26.57;;;5.70;99.90;;;;;;10572516;22;20240;-84
2022/12/10 03:26:45;;;;;;;30.80;26.87;;;5.70;99.90;;;;;;10551759;28;20211;-83
2022/12/10 03:32:13;;;;;;;26.73;24.00;;;5.70;99.90;;;;;;10485779;28;20227;-82
2022/12/10 03:37:37;;;;;;;30.03;26.97;;;5.80;99.90;;;;;;10566216;28;20545;-80
2022/12/10 03:42:48;;;;;;;30.43;27.23;;;5.80;99.90;;;;;;10533562;28;20202;-80
2022/12/10 03:47:54;;;;;;;28.70;25.87;;;5.70;99.90;;;;;;10562655;28;20259;-83
2022/12/10 03:53:02;;;;;;;30.23;27.13;;;5.70;99.90;;;;;;10551697;28;20212;-80
2022/12/10 03:58:06;;;;;;;30.83;27.57;;;5.80;99.90;;;;;;10533254;28;20479;-81
2022/12/10 04:03:16;;;;;;;30.57;27.57;;;5.90;99.90;;;;;;10561079;28;20199;-81
2022/12/10 04:08:18;;;;;;;27.63;24.90;;;5.90;99.90;;;;;;10537474;28;20781;-83
2022/12/10 04:18:42;;;;;;;29.37;26.23;;;5.90;99.90;;;;;;10531896;28;20257;-80
2022/12/10 04:29:05;;;;;;;29.20;26.13;;;5.90;99.90;;;;;;10562309;28;20663;-82
2022/12/10 04:34:21;;;;;;;29.53;26.60;;;5.90;99.90;;;;;;10553471;28;20224;-80
2022/12/10 04:39:24;;;;;;;30.30;27.20;;;5.90;99.90;;;;;;10535647;28;20218;-80
2022/12/10 04:44:36;;;;;;;28.03;25.17;;;5.90;99.90;;;;;;10535602;28;20325;-82
2022/12/10 04:49:43;;;;;;;29.13;26.03;;;5.90;99.90;;;;;;10537301;28;20314;-81
2022/12/10 04:54:47;;;;;;;27.57;24.47;;;5.90;99.90;;;;;;10574004;28;20439;-81
2022/12/10 04:59:58;;;;;;;29.93;26.83;;;5.80;99.90;;;;;;10539316;28;20216;-79
2022/12/10 05:05:05;;;;;;;29.43;26.23;;;5.90;99.90;;;;;;10554896;28;20220;-79
2022/12/10 05:10:08;;;;;;;28.30;25.30;;;5.90;99.90;;;;;;10558730;28;20237;-81
2022/12/10 05:15:16;;;;;;;29.80;26.87;;;5.90;99.90;;;;;;10565398;28;20208;-82
2022/12/10 05:20:38;;;;;;;31.07;27.97;;;5.90;99.90;;;;;;10519573;28;20219;-81
2022/12/10 05:25:52;;;;;;;29.60;26.63;;;5.90;99.90;;;;;;10518129;28;20256;-79
2022/12/10 05:30:54;;;;;;;30.37;27.23;;;5.90;99.90;;;;;;10560572;28;20242;-81
2022/12/10 05:36:11;;;;;;;29.70;26.70;;;5.80;99.90;;;;;;10527706;28;20204;-80
2022/12/10 05:41:24;;;;;;;28.47;25.53;;;5.80;99.90;;;;;;10560732;28;20211;-82
2022/12/10 05:46:28;;;;;;;31.20;26.30;;;5.80;99.90;;;;;;10560256;28;20207;-79
2022/12/10 05:51:34;;;;;;;28.77;25.80;;;5.80;99.90;;;;;;10554043;28;20223;-82
2022/12/10 05:56:46;;;;;;;28.60;25.70;;;5.70;99.90;;;;;;10503487;28;20286;-82
2022/12/10 06:01:48;;;;;;;29.10;26.20;;;5.70;99.90;;;;;;10527873;28;20214;-82
2022/12/10 06:06:51;;;;;;;29.73;26.80;;;5.60;99.90;;;;;;10566835;28;20207;-83
2022/12/10 06:11:54;;;;;;;29.97;26.83;;;5.60;99.90;;;;;;10534920;28;20360;-84
2022/12/10 06:16:56;;;;;;;29.90;26.80;;;5.60;99.90;;;;;;10572828;28;20196;-84
2022/12/10 06:22:00;;;;;;;30.67;27.53;;;5.60;99.90;;;;;;10568304;28;20679;-79
2022/12/10 06:27:07;;;;;;;28.13;25.40;;;5.60;99.90;;;;;;10575260;28;20253;-79
2022/12/10 06:37:32;;;;;;;30.33;27.23;;;5.70;99.90;;;;;;10596098;28;20216;-82
2022/12/10 06:42:34;;;;;;;27.83;24.83;;;5.70;99.90;;;;;;10589239;28;20292;-79
2022/12/10 06:58:24;;;;;;;28.97;26.07;;;5.60;99.90;;;;;;10526461;28;20724;-81
2022/12/10 07:09:35;;;;;;;29.07;26.03;;;5.60;99.90;;;;;;10551038;22;20224;-84
2022/12/10 07:15:12;;;;;;;28.10;25.30;;;5.60;99.90;;;;;;10515149;22;20313;-84
2022/12/10 07:20:14;;;;;;;29.07;26.07;;;5.50;99.90;;;;;;10567106;28;20692;-82
2022/12/10 07:25:16;;;;;;;29.30;25.23;;;5.60;99.90;;;;;;10583025;28;20614;-82
2022/12/10 07:30:20;;;;;;;28.73;25.57;;;5.60;99.90;;;;;;10584951;28;20212;-82
2022/12/10 07:35:22;;;;;;;30.37;27.30;;;5.50;99.90;;;;;;10572460;28;20793;-84
2022/12/10 07:40:24;;;;;;;31.63;25.57;;;5.50;99.90;;;;;;10594119;28;20221;-83
2022/12/10 07:45:28;;;;;;;30.43;27.27;;;5.60;99.90;;;;;;10595951;28;20226;-82
2022/12/10 07:50:30;;;;;;;29.47;26.43;;;5.60;99.90;;;;;;10607432;27;20203;-83
2022/12/10 07:55:32;;;;;;;29.87;26.87;;;5.60;99.90;;;;;;10564759;28;20589;-83
2022/12/10 08:00:36;;;;;;;28.30;25.40;;;5.70;99.90;;;;;;10591597;28;20191;-83
2022/12/10 08:05:39;;;;;;;29.07;26.07;;;5.70;99.90;;;;;;10583942;28;20567;-83
2022/12/10 08:10:41;;;;;;;29.43;26.53;;;5.80;99.90;;;;;;10585000;28;20230;-84
2022/12/10 08:15:47;;;;;;;29.33;26.33;;;5.80;99.90;;;;;;10584298;28;20273;-81
2022/12/10 08:20:49;;;;;;;29.03;25.93;;;5.90;99.90;;;;;;10563985;28;20621;-82
2022/12/10 08:25:51;;;;;;;29.40;26.30;;;5.90;99.90;;;;;;10564678;28;20216;-81
2022/12/10 08:30:54;;;;;;;30.30;26.13;;;5.90;99.90;;;;;;10585830;28;20294;-81
2022/12/10 08:35:59;;;;;;;30.67;27.30;;;6.00;99.90;;;;;;10595544;28;20613;-81
2022/12/10 08:41:07;;;;;;;29.20;25.00;;;6.00;99.90;;;;;;10592594;28;20199;-81
2022/12/10 08:46:11;;;;;;;30.80;27.70;;;6.00;99.90;;;;;;10578546;28;20245;-81
2022/12/10 08:51:16;;;;;;;30.70;27.53;;;6.00;99.90;;;;;;10593300;28;20563;-81
2022/12/10 08:56:18;;;;;;;30.57;27.37;;;6.00;99.90;;;;;;10579968;28;20203;-81
2022/12/10 09:01:22;;;;;;;27.73;24.93;;;6.10;99.90;;;;;;10591965;28;20270;-81
2022/12/10 09:06:25;;;;;;;28.60;25.70;;;6.10;99.90;;;;;;10595481;28;20203;-81
2022/12/10 09:11:29;;;;;;;27.47;24.60;;;6.10;99.90;;;;;;10568423;28;20273;-80
2022/12/10 09:16:35;;;;;;;26.73;23.80;;;6.10;99.90;;;;;;10584411;28;20244;-81
2022/12/10 09:21:38;;;;;;;28.57;25.63;;;6.00;99.90;;;;;;10568423;28;20601;-81
2022/12/10 09:26:40;;;;;;;28.53;25.53;;;6.10;99.90;;;;;;10573219;28;20199;-82
2022/12/10 09:31:44;;;;;;;31.20;27.97;;;6.10;99.90;;;;;;10581218;28;20215;-80
2022/12/10 09:36:46;;;;;;;29.63;26.53;;;6.10;99.90;;;;;;10571296;28;20256;-81
2022/12/10 09:42:02;;;;;;;30.63;27.60;;;6.10;99.90;;;;;;10589424;28;20211;-82
2022/12/10 09:47:09;;;;;;;30.20;27.20;;;6.10;99.90;;;;;;10572027;28;20214;-81
2022/12/10 09:52:14;;;;;;;31.10;28.00;;;6.20;99.90;;;;;;10571379;28;20271;-81
2022/12/10 09:57:21;;;;;;;31.53;28.03;;;6.20;99.90;;;;;;10548616;28;20199;-81
2022/12/10 10:02:27;;;;;;;32.20;28.80;;;6.20;99.90;;;;;;10577865;28;20215;-81
2022/12/10 10:07:31;;;;;;;29.40;26.20;;;6.20;99.90;;;;;;10558849;28;20200;-81
2022/12/10 10:12:34;;;;;;;29.10;25.67;;;6.30;99.90;;;;;;10544629;28;20243;-81
2022/12/10 10:17:38;;;;;;;30.20;27.10;;;6.30;99.90;;;;;;10577444;28;20206;-80
2022/12/10 10:22:41;;;;;;;29.70;26.70;;;6.30;99.90;;;;;;10570241;28;20230;-81
2022/12/10 10:27:43;;;;;;;29.90;26.77;;;6.30;99.90;;;;;;10544324;28;20208;-80
2022/12/10 10:32:50;;;;;;;28.87;25.80;;;6.30;99.90;;;;;;10583812;28;20574;-81
2022/12/10 10:37:56;;;;;;;28.93;26.03;;;6.30;99.90;;;;;;10593487;28;20266;-81
2022/12/10 10:43:01;;;;;;;29.60;26.50;;;6.30;99.90;;;;;;10595410;28;20211;-80
2022/12/10 10:48:12;;;;;;;28.67;25.77;;;6.40;99.90;;;;;;10596420;28;20204;-80
2022/12/10 10:53:32;;;;;;;31.17;27.60;;;6.40;99.90;;;;;;10596198;28;20221;-81
2022/12/10 10:58:35;;;;;;;29.43;26.43;;;6.40;99.90;;;;;;10546185;28;20298;-81
2022/12/10 11:03:47;;;;;;;30.50;27.40;;;6.40;99.90;;;;;;10594586;28;20203;-81
2022/12/10 11:08:58;;;;;;;29.33;26.40;;;6.40;99.90;;;;;;10584070;28;20203;-80
2022/12/10 11:14:15;;;;;;;27.00;24.10;;;6.50;99.90;;;;;;10593800;28;20725;-81
2022/12/10 11:19:22;;;;;;;29.77;26.77;;;6.50;99.90;;;;;;10594640;28;20232;-81
2022/12/10 11:24:27;;;;;;;28.30;25.40;;;6.50;99.90;;;;;;10593095;28;20264;-80
2022/12/10 11:29:46;;;;;;;27.90;25.20;;;6.50;99.90;;;;;;10547072;28;20208;-81
2022/12/10 11:35:03;;;;;;;28.17;25.33;;;6.50;99.90;;;;;;10548135;28;20223;-81
2022/12/10 11:40:25;;;;;;;42.07;33.77;;;6.50;99.90;;;;;;10543680;28;20199;-81
2022/12/10 11:45:39;;;;;;;28.17;25.27;;;6.60;99.90;;;;;;10536992;28;20208;-81
2022/12/10 11:50:47;;;;;;;25.70;23.20;;;6.60;99.90;;;;;;10554496;28;20357;-81
2022/12/10 11:55:57;;;;;;;30.13;23.63;;;6.60;99.90;;;;;;10548533;28;20581;-81
2022/12/10 12:01:04;;;;;;;27.10;24.40;;;6.60;99.90;;;;;;10556745;28;20242;-80
2022/12/10 12:06:32;;;;;;;28.00;25.10;;;6.60;99.90;;;;;;10560589;28;20568;-81
2022/12/10 12:11:59;;;;;;;25.27;22.53;;;6.60;99.90;;;;;;10550795;28;20241;-82
2022/12/10 12:17:08;;;;;;;25.27;22.67;;;6.60;99.90;;;;;;10526558;28;20216;-81
2022/12/10 12:22:18;;;;;;;25.37;22.70;;;6.70;99.90;;;;;;10532370;28;20302;-80
2022/12/10 12:27:26;;;;;;;25.20;22.53;;;6.70;99.90;;;;;;10528018;28;20627;-80
2022/12/10 12:32:33;;;;;;;23.63;19.73;;;6.70;99.90;;;;;;10544834;28;20230;-80
2022/12/10 12:37:42;;;;;;;22.73;20.50;;;6.70;99.90;;;;;;10548356;28;20242;-81
2022/12/10 12:42:51;;;;;;;26.87;21.60;;;6.70;99.90;;;;;;10554692;28;20250;-81
2022/12/10 12:48:02;;;;;;;22.67;20.57;;;6.70;99.90;;;;;;10541701;28;20628;-80
2022/12/10 12:53:10;;;;;;;20.20;18.30;;;6.70;99.90;;;;;;10550596;28;20227;-80
2022/12/10 12:58:22;;;;;;;22.00;19.90;;;6.80;99.90;;;;;;10530129;28;20637;-81
2022/12/10 13:03:37;;;;;;;22.13;19.90;;;6.80;99.90;;;;;;10557851;28;20298;-80
2022/12/10 13:08:45;;;;;;;20.90;18.90;;;6.80;99.90;;;;;;10554157;28;20195;-81
2022/12/10 13:14:14;;;;;;;21.63;19.43;;;6.70;99.90;;;;;;10564794;28;20254;-81
2022/12/10 13:19:32;;;;;;;19.80;18.00;;;6.80;99.90;;;;;;10572989;28;20261;-80
2022/12/10 13:25:13;;;;;;;23.43;21.00;;;6.70;99.90;;;;;;10590283;28;20203;-80
2022/12/10 13:30:37;;;;;;;25.83;23.37;;;6.70;99.90;;;;;;10551549;28;20214;-81
2022/12/10 13:35:52;;;;;;;26.20;23.60;;;6.70;99.90;;;;;;10576456;28;20663;-82
2022/12/10 13:46:30;;;;;;;27.80;24.90;;;6.60;99.90;;;;;;10609896;27;20262;-80
2022/12/10 13:51:44;;;;;;;31.20;27.20;;;6.60;99.90;;;;;;10577111;28;20257;-81
2022/12/10 13:56:56;;;;;;;31.33;25.30;;;6.50;99.90;;;;;;10578009;28;20678;-80
2022/12/10 14:02:20;;;;;;;29.73;26.60;;;6.50;99.90;;;;;;10594708;28;20302;-81
2022/12/10 14:07:23;;;;;;;28.97;25.87;;;6.40;99.90;;;;;;10515213;28;20199;-82
2022/12/10 14:12:30;;;;;;;28.47;25.50;;;6.30;99.90;;;;;;10569224;28;20215;-81
2022/12/10 14:17:37;;;;;;;30.00;26.70;;;6.20;99.90;;;;;;10600888;28;20203;-80
2022/12/10 14:22:46;;;;;;;29.93;26.83;;;6.20;99.90;;;;;;10579397;28;20667;-80
2022/12/10 14:27:49;;;;;;;27.93;25.10;;;6.10;99.90;;;;;;10567656;28;20582;-81
2022/12/10 14:32:57;;;;;;;31.83;27.80;;;6.10;99.90;;;;;;10594586;28;20226;-81
2022/12/10 14:38:01;;;;;;;28.43;25.37;;;6.10;99.90;;;;;;10576658;28;20669;-81
2022/12/10 14:43:06;;;;;;;28.00;25.07;;;6.10;99.90;;;;;;10593802;28;20694;-81
2022/12/10 14:48:12;;;;;;;26.97;24.00;;;6.10;99.90;;;;;;10577253;28;20207;-80
2022/12/10 14:53:17;;;;;;;29.00;26.00;;;6.10;99.90;;;;;;10594588;28;20215;-80
2022/12/10 14:58:26;;;;;;;26.00;23.20;;;6.10;99.90;;;;;;10568257;28;20569;-81
2022/12/10 15:03:33;;;;;;;26.60;23.40;;;6.10;99.90;;;;;;10596965;28;20229;-81
2022/12/10 15:08:37;;;;;;;28.47;25.10;;;6.00;99.90;;;;;;10561421;28;20219;-80
2022/12/10 15:13:42;;;;;;;27.00;24.20;;;6.00;99.90;;;;;;10600860;28;20246;-83
2022/12/10 15:18:46;;;;;;;25.50;22.87;;;6.00;99.90;;;;;;10602731;28;20203;-81
2022/12/10 15:23:48;;;;;;;27.33;24.53;;;6.00;99.90;;;;;;10602942;28;20211;-81
2022/12/10 15:28:51;;;;;;;27.03;24.23;;;6.00;99.90;;;;;;10565113;28;20638;-80
2022/12/10 15:33:56;;;;;;;27.70;24.90;;;6.00;99.90;;;;;;10599207;28;20227;-81
2022/12/10 15:39:03;;;;;;;25.73;23.10;;;5.90;99.90;;;;;;10579448;28;20646;-82
2022/12/10 15:44:17;;;;;;;25.20;22.50;;;5.90;99.90;;;;;;10580407;28;20207;-82
2022/12/10 15:49:20;;;;;;;28.37;25.37;;;5.90;99.90;;;;;;10597970;28;20211;-82
2022/12/10 15:54:26;;;;;;;24.77;22.20;;;5.80;99.90;;;;;;10547367;28;20314;-81
2022/12/10 15:59:28;;;;;;;25.87;23.20;;;5.80;99.90;;;;;;10538090;28;20203;-81
2022/12/10 16:04:32;;;;;;;24.90;22.30;;;5.80;99.90;;;;;;10595303;28;20215;-81
2022/12/10 16:09:34;;;;;;;24.20;21.80;;;5.70;99.90;;;;;;10561847;28;20204;-83
2022/12/10 16:14:36;;;;;;;27.43;23.00;;;5.70;99.90;;;;;;10543547;28;20585;-81
2022/12/10 16:19:40;;;;;;;23.50;20.90;;;5.60;99.90;;;;;;10597120;28;20217;-82
2022/12/10 16:24:42;;;;;;;24.87;22.37;;;5.60;99.90;;;;;;10596717;28;20210;-82
2022/12/10 16:29:44;;;;;;;24.17;21.60;;;5.60;99.90;;;;;;10554588;28;20204;-82
2022/12/10 16:34:52;;;;;;;24.10;21.47;;;5.60;99.90;;;;;;10597399;28;20229;-81
2022/12/10 16:39:54;;;;;;;23.80;20.67;;;5.60;99.90;;;;;;10598062;28;20267;-83
2022/12/10 16:44:56;;;;;;;24.13;21.63;;;5.60;99.90;;;;;;10584423;28;20217;-82
2022/12/10 16:49:59;;;;;;;23.77;21.27;;;5.60;99.90;;;;;;10599011;28;20225;-82
2022/12/10 16:55:02;;;;;;;25.03;22.30;;;5.50;99.90;;;;;;10594267;28;20253;-80
2022/12/10 17:00:05;;;;;;;22.60;20.30;;;5.50;99.90;;;;;;10508190;28;20204;-81
2022/12/10 17:05:15;;;;;;;23.30;20.87;;;5.50;99.90;;;;;;10592853;28;20218;-82
2022/12/10 17:11:44;;;;;;;22.17;19.80;;;5.50;99.90;;;;;;10527454;28;20238;-82
2022/12/10 17:15:40;;;;;;;24.63;22.17;;;5.50;99.90;;;;;;10505777;28;20566;-81
2022/12/10 17:20:44;;;;;;;23.20;20.87;;;5.50;99.90;;;;;;10569925;28;20206;-82
2022/12/10 17:25:48;;;;;;;26.63;23.43;;;5.60;99.90;;;;;;10561216;28;20430;-82
2022/12/10 17:30:51;;;;;;;23.07;20.67;;;5.60;99.90;;;;;;10582713;28;20412;-82
2022/12/10 17:35:54;;;;;;;25.63;22.87;;;5.50;99.90;;;;;;10583938;28;20786;-81
2022/12/10 17:40:56;;;;;;;24.57;22.00;;;5.50;99.90;;;;;;10565430;28;20199;-82
2022/12/10 17:45:59;;;;;;;23.10;20.80;;;5.50;99.90;;;;;;10582386;28;20695;-82
2022/12/10 17:51:03;;;;;;;23.67;21.20;;;5.50;99.90;;;;;;10582801;28;20194;-82
2022/12/10 17:56:13;;;;;;;23.97;21.47;;;5.60;99.90;;;;;;10569385;28;20235;-82
2022/12/10 18:01:16;;;;;;;25.73;23.03;;;5.60;99.90;;;;;;10544630;28;20302;-83
2022/12/10 18:06:23;;;;;;;24.87;22.17;;;5.60;99.90;;;;;;10516378;28;20530;-80
2022/12/10 18:11:30;;;;;;;25.43;22.93;;;5.50;99.90;;;;;;10513425;28;20220;-82
2022/12/10 18:16:35;;;;;;;28.10;24.60;;;5.50;99.90;;;;;;10517251;28;20235;-82
2022/12/10 18:21:38;;;;;;;27.10;24.30;;;5.50;99.90;;;;;;10502663;28;20221;-82
2022/12/10 18:26:41;;;;;;;25.63;23.03;;;5.40;99.90;;;;;;10522378;28;20651;-82
2022/12/10 18:31:45;;;;;;;25.83;23.23;;;5.40;99.90;;;;;;10521946;28;20223;-83
2022/12/10 18:36:49;;;;;;;27.10;24.40;;;5.40;99.90;;;;;;10525628;28;20684;-82
2022/12/10 18:41:53;;;;;;;26.90;23.93;;;5.40;99.90;;;;;;10503044;28;20332;-82
2022/12/10 18:46:57;;;;;;;22.63;19.43;;;5.40;99.90;;;;;;10524771;28;20192;-82
2022/12/10 18:52:00;;;;;;;27.73;24.83;;;5.40;99.90;;;;;;10519668;28;20225;-81
2022/12/10 18:57:05;;;;;;;30.87;27.77;;;5.40;99.90;;;;;;10517947;28;20652;-83
2022/12/10 19:02:07;;;;;;;27.20;24.27;;;5.40;99.90;;;;;;10526829;28;20231;-82
2022/12/10 19:07:13;;;;;;;25.03;22.53;;;5.40;99.90;;;;;;10527878;28;20200;-82
2022/12/10 19:12:15;;;;;;;26.93;24.20;;;5.40;99.90;;;;;;10544922;28;20254;-82
2022/12/10 19:17:17;;;;;;;23.30;20.80;;;5.40;99.90;;;;;;10539860;28;20230;-82
2022/12/10 19:22:20;;;;;;;25.23;22.63;;;5.50;99.90;;;;;;10547485;28;20616;-81
2022/12/10 19:27:23;;;;;;;26.93;23.93;;;5.40;99.90;;;;;;10560384;28;20261;-81
2022/12/10 19:32:25;;;;;;;25.40;22.70;;;5.50;99.90;;;;;;10529969;28;20273;-81
2022/12/10 19:37:30;;;;;;;25.83;23.33;;;5.40;99.90;;;;;;10570273;28;20286;-82
2022/12/10 19:42:32;;;;;;;26.13;23.43;;;5.40;99.90;;;;;;10572483;28;20289;-81
2022/12/10 19:47:34;;;;;;;25.80;23.10;;;5.40;99.90;;;;;;10590224;28;20201;-82
2022/12/10 19:52:37;;;;;;;25.70;23.10;;;5.40;99.90;;;;;;10591810;28;20215;-81
2022/12/10 19:57:40;;;;;;;25.00;22.60;;;5.40;99.90;;;;;;10564444;28;20204;-82
2022/12/10 20:02:42;;;;;;;26.53;23.83;;;5.40;99.90;;;;;;10604658;27;20222;-82
2022/12/10 20:07:46;;;;;;;27.83;24.93;;;5.30;99.90;;;;;;10589873;28;20224;-82
2022/12/10 20:12:48;;;;;;;26.60;23.80;;;5.30;99.90;;;;;;10572476;28;20255;-82
2022/12/10 20:17:51;;;;;;;26.33;23.67;;;5.20;99.90;;;;;;10592340;28;20658;-83
2022/12/10 20:22:56;;;;;;;24.87;22.37;;;5.20;99.90;;;;;;10590498;28;20211;-82
2022/12/10 20:27:58;;;;;;;23.33;21.03;;;5.20;99.90;;;;;;10550440;28;20551;-81
2022/12/10 20:33:00;;;;;;;24.73;22.23;;;5.20;99.90;;;;;;10569649;28;20215;-82
2022/12/10 20:38:03;;;;;;;27.57;24.67;;;5.20;99.90;;;;;;10589695;28;20245;-79
2022/12/10 20:43:06;;;;;;;27.20;24.40;;;5.20;99.90;;;;;;10571845;28;20218;-83
2022/12/10 20:48:10;;;;;;;24.67;22.27;;;5.20;99.90;;;;;;10589736;28;20199;-83
2022/12/10 20:53:13;;;;;;;25.50;22.93;;;5.20;99.90;;;;;;10588148;28;20245;-83
2022/12/10 20:58:15;;;;;;;25.97;23.57;;;5.20;99.90;;;;;;10540971;28;20245;-83
2022/12/10 21:03:17;;;;;;;26.90;24.20;;;5.10;99.90;;;;;;10584068;28;20294;-83
2022/12/10 21:08:21;;;;;;;25.10;22.60;;;5.00;99.90;;;;;;10590573;28;20195;-83
2022/12/10 21:13:25;;;;;;;26.80;24.13;;;5.00;99.90;;;;;;10589905;28;20235;-83
2022/12/10 21:18:29;;;;;;;26.40;23.60;;;4.90;99.90;;;;;;10582306;28;20207;-83
2022/12/10 21:23:35;;;;;;;28.13;25.17;;;4.80;99.90;;;;;;10599174;28;20235;-83
2022/12/10 21:28:37;;;;;;;26.90;24.00;;;4.70;99.90;;;;;;10564940;28;20231;-82
2022/12/10 21:33:39;;;;;;;29.60;26.43;;;4.70;99.90;;;;;;10593780;28;20255;-81
2022/12/10 21:38:43;;;;;;;31.10;27.63;;;4.60;99.90;;;;;;10605381;28;20206;-82
2022/12/10 21:43:45;;;;;;;26.13;23.40;;;4.50;99.90;;;;;;10600479;28;20260;-83
2022/12/10 21:48:47;;;;;;;25.10;22.50;;;4.50;99.90;;;;;;10579564;28;20191;-83
2022/12/10 21:53:52;;;;;;;22.70;20.50;;;4.50;99.90;;;;;;10602736;28;20219;-80
2022/12/10 21:58:54;;;;;;;22.10;19.93;;;4.40;99.90;;;;;;10576672;28;20234;-82
2022/12/10 22:03:57;;;;;;;23.70;21.30;;;4.40;99.90;;;;;;10564855;28;20215;-82
2022/12/10 22:09:01;;;;;;;22.43;20.13;;;4.40;99.90;;;;;;10532967;28;20220;-83
2022/12/10 22:14:03;;;;;;;23.13;20.93;;;4.30;99.90;;;;;;10529737;28;20220;-83
2022/12/10 22:19:05;;;;;;;24.00;21.60;;;4.30;99.90;;;;;;10514268;28;20249;-83
2022/12/10 22:24:09;;;;;;;17.70;15.90;;;4.30;99.90;;;;;;10520839;28;20226;-83
2022/12/10 22:29:11;;;;;;;23.80;21.40;;;4.40;99.90;;;;;;10547755;28;20231;-82
2022/12/10 22:34:13;;;;;;;22.20;20.13;;;4.30;99.90;;;;;;10552223;28;20222;-82
2022/12/10 22:39:16;;;;;;;22.97;20.70;;;4.30;99.90;;;;;;10544791;28;20231;-83
2022/12/10 22:44:19;;;;;;;21.30;19.30;;;4.30;99.90;;;;;;10513256;28;20212;-83
2022/12/10 22:49:21;;;;;;;23.03;20.73;;;4.20;99.90;;;;;;10533569;28;20211;-83
2022/12/10 22:54:25;;;;;;;22.87;20.57;;;4.20;99.90;;;;;;10557139;28;20227;-83
2022/12/10 22:59:27;;;;;;;21.87;19.70;;;4.10;99.90;;;;;;10556277;28;20200;-83
2022/12/10 23:04:29;;;;;;;23.00;20.60;;;4.10;99.90;;;;;;10562258;28;20419;-83
2022/12/10 23:09:33;;;;;;;22.10;20.00;;;4.10;99.90;;;;;;10553886;28;20196;-83
2022/12/10 23:14:35;;;;;;;22.80;20.60;;;4.10;99.90;;;;;;10561769;28;20319;-82
2022/12/10 23:19:38;;;;;;;21.00;18.90;;;4.10;99.90;;;;;;10535538;28;20204;-83
2022/12/10 23:24:41;;;;;;;22.23;20.03;;;4.00;99.90;;;;;;10559666;28;20750;-82
2022/12/10 23:29:43;;;;;;;20.47;18.37;;;3.90;99.90;;;;;;10551135;28;20680;-82
2022/12/10 23:34:46;;;;;;;21.30;19.20;;;3.80;99.80;;;;;;10565088;28;20223;-81
2022/12/10 23:39:49;;;;;;;21.27;18.93;;;3.60;99.90;;;;;;10548050;28;20211;-82
2022/12/10 23:44:51;;;;;;;22.10;19.00;;;3.50;99.80;;;;;;10535710;28;20219;-82
2022/12/10 23:49:53;;;;;;;21.10;19.20;;;3.30;99.80;;;;;;10546672;28;20265;-82
2022/12/10 23:54:57;;;;;;;22.70;20.30;;;3.20;99.90;;;;;;10557211;28;20224;-81
